Time;durP1;ratioP1;P1;durP2;ratioP2;P2;SDS_P1;SDS_P2;PMS_P1;PMS_P2;Temp;Humidity;BMP_temperature;BMP_pressure;BME280_temperature;BME280_humidity;BME280_pressure;Samples;Min_cycle;Max_cycle;Signal;HPM_P1;HPM_P2
2021/08/24 00:01:59;;;;;;;34.95;24.10;;;18.90;61.10;;;;;;5057636;28;20025;-36
2021/08/24 00:04:25;;;;;;;36.75;22.35;;;18.90;61.30;;;;;;5057663;28;20033;-38
2021/08/24 00:06:50;;;;;;;38.72;24.15;;;18.90;61.30;;;;;;5057715;28;20048;-38
2021/08/24 00:09:16;;;;;;;38.15;23.23;;;18.90;61.60;;;;;;5057344;28;20041;-36
2021/08/24 00:11:42;;;;;;;38.22;23.60;;;18.90;61.80;;;;;;5057672;28;20413;-37
2021/08/24 00:14:09;;;;;;;32.15;23.65;;;18.90;62.00;;;;;;5057226;28;20040;-38
2021/08/24 00:16:35;;;;;;;38.38;23.75;;;18.90;62.10;;;;;;5057292;28;20444;-36
2021/08/24 00:19:01;;;;;;;38.70;25.65;;;18.90;62.20;;;;;;5057335;28;20032;-37
2021/08/24 00:21:27;;;;;;;45.95;28.25;;;18.90;62.40;;;;;;5057452;28;20079;-38
2021/08/24 00:23:52;;;;;;;39.38;27.15;;;18.90;62.60;;;;;;5057312;28;20317;-37
2021/08/24 00:26:19;;;;;;;43.83;28.05;;;18.90;62.70;;;;;;5057074;28;20056;-36
2021/08/24 00:28:45;;;;;;;40.42;26.10;;;18.80;62.80;;;;;;5057248;28;20433;-36
2021/08/24 00:31:11;;;;;;;46.47;27.40;;;18.80;62.90;;;;;;5057113;28;20033;-36
2021/08/24 00:33:36;;;;;;;43.60;28.52;;;18.80;63.00;;;;;;5056687;28;20025;-38
2021/08/24 00:36:02;;;;;;;43.38;29.52;;;18.80;62.90;;;;;;5057385;28;20029;-37
2021/08/24 00:38:28;;;;;;;44.53;28.77;;;18.80;63.10;;;;;;5056716;28;20029;-37
2021/08/24 00:40:54;;;;;;;50.38;28.63;;;18.80;63.10;;;;;;5057058;28;20033;-37
2021/08/24 00:43:20;;;;;;;43.53;25.88;;;18.80;63.10;;;;;;5056600;28;20033;-36
2021/08/24 00:45:50;;;;;;;45.95;29.25;;;18.80;63.10;;;;;;5057178;28;20068;-36
2021/08/24 00:48:16;;;;;;;47.97;28.50;;;18.80;63.10;;;;;;5057072;28;20086;-38
2021/08/24 00:50:47;;;;;;;39.55;26.05;;;18.80;63.00;;;;;;5057028;28;20686;-37
2021/08/24 00:53:18;;;;;;;42.67;28.17;;;18.80;63.00;;;;;;5056558;28;20338;-37
2021/08/24 00:55:46;;;;;;;44.78;27.17;;;18.70;63.00;;;;;;5056926;28;20417;-36
2021/08/24 00:58:14;;;;;;;46.40;28.67;;;18.70;63.00;;;;;;5056779;28;20036;-38
2021/08/24 01:00:40;;;;;;;45.47;27.10;;;18.70;63.10;;;;;;5056881;28;20082;-37
2021/08/24 01:03:14;;;;;;;44.97;28.55;;;18.70;63.00;;;;;;5056322;28;20041;-37
2021/08/24 01:05:42;;;;;;;48.08;30.48;;;18.70;62.90;;;;;;5056869;28;20028;-36
2021/08/24 01:08:47;;;;;;;47.15;29.73;;;18.70;62.90;;;;;;5056540;28;20263;-37
2021/08/24 01:11:34;;;;;;;44.05;30.10;;;18.70;62.80;;;;;;5055223;28;20207;-37
2021/08/24 01:14:31;;;;;;;47.08;27.90;;;18.70;62.70;;;;;;5056320;28;20057;-37
2021/08/24 01:17:16;;;;;;;50.25;30.27;;;18.70;62.90;;;;;;5056040;28;20476;-38
2021/08/24 01:20:00;;;;;;;46.22;29.15;;;18.70;63.10;;;;;;5056348;28;20386;-37
2021/08/24 01:22:57;;;;;;;48.03;28.17;;;18.70;63.30;;;;;;5055988;28;20425;-36
2021/08/24 01:25:34;;;;;;;46.95;29.33;;;18.60;63.20;;;;;;5055804;28;20463;-37
2021/08/24 01:28:08;;;;;;;45.10;30.48;;;18.60;63.50;;;;;;5055988;28;20176;-37
2021/08/24 01:30:49;;;;;;;45.75;29.85;;;18.60;63.60;;;;;;5056191;28;20035;-36
2021/08/24 01:33:49;;;;;;;42.03;27.08;;;18.50;63.60;;;;;;5055760;28;20377;-36
2021/08/24 01:36:27;;;;;;;;;;;18.50;63.40;;;;;;5056649;28;20321;-37
2021/08/24 01:38:56;;;;;;;41.92;27.52;;;18.40;63.10;;;;;;5055729;28;19904;-37
2021/08/24 01:41:52;;;;;;;45.97;28.27;;;18.40;63.60;;;;;;5055898;28;20325;-37
2021/08/24 01:44:24;;;;;;;42.55;29.23;;;18.40;63.50;;;;;;5056017;28;20474;-37
2021/08/24 01:46:55;;;;;;;42.20;26.20;;;18.40;63.50;;;;;;5055819;28;20072;-36
2021/08/24 01:49:29;;;;;;;42.95;27.20;;;18.40;63.40;;;;;;5055780;28;20021;-38
2021/08/24 01:51:59;;;;;;;44.42;26.05;;;18.40;63.30;;;;;;5054997;28;20044;-37
2021/08/24 01:54:50;;;;;;;41.88;26.48;;;18.40;63.20;;;;;;5055782;28;20040;-36
2021/08/24 01:57:22;;;;;;;;;;;18.40;63.00;;;;;;5056035;28;20037;-38
2021/08/24 02:00:01;;;;;;;40.00;25.50;;;18.30;62.90;;;;;;5054711;28;19983;-37
2021/08/24 02:02:36;;;;;;;41.15;26.98;;;18.30;63.00;;;;;;5055452;28;20037;-36
2021/08/24 02:05:07;;;;;;;41.58;26.10;;;18.30;63.20;;;;;;5055956;28;20414;-36
2021/08/24 02:07:34;;;;;;;40.47;26.65;;;18.30;63.30;;;;;;5055486;28;20086;-37
2021/08/24 02:10:07;;;;;;;37.05;24.63;;;18.30;63.60;;;;;;5056200;28;20029;-36
2021/08/24 02:12:36;;;;;;;40.40;26.83;;;18.30;63.40;;;;;;5055416;28;20375;-36
2021/08/24 02:15:03;;;;;;;38.42;25.98;;;18.30;63.60;;;;;;5055915;28;20401;-37
2021/08/24 02:17:32;;;;;;;43.50;27.30;;;18.30;63.60;;;;;;5055358;28;20057;-37
2021/08/24 02:20:30;;;;;;;40.15;26.23;;;18.20;63.60;;;;;;5055692;28;20033;-36
2021/08/24 02:23:02;;;;;;;35.38;24.38;;;18.20;63.60;;;;;;5054883;28;20337;-37
2021/08/24 02:25:31;;;;;;;39.85;24.25;;;18.20;63.70;;;;;;5055461;28;20033;-36
2021/08/24 02:28:02;;;;;;;39.20;26.17;;;18.10;63.90;;;;;;5055283;28;20029;-36
2021/08/24 02:30:31;;;;;;;36.95;23.90;;;18.10;64.30;;;;;;5055725;28;20029;-37
2021/08/24 02:32:58;;;;;;;36.63;23.20;;;18.10;63.90;;;;;;5055047;28;20038;-37
2021/08/24 02:35:24;;;;;;;42.20;25.58;;;18.10;63.90;;;;;;5055702;28;20024;-36
2021/08/24 02:38:02;;;;;;;39.28;24.67;;;18.00;64.10;;;;;;5055222;28;20040;-38
2021/08/24 02:40:27;;;;;;;42.25;25.40;;;18.00;64.20;;;;;;5055680;28;20036;-37
2021/08/24 02:42:58;;;;;;;36.92;23.15;;;18.00;64.30;;;;;;5055134;28;20116;-36
2021/08/24 02:45:29;;;;;;;34.70;23.33;;;18.00;64.40;;;;;;5055602;28;20021;-36
2021/08/24 02:47:55;;;;;;;34.70;22.25;;;18.00;64.70;;;;;;5053979;28;20072;-37
2021/08/24 02:50:23;;;;;;;37.95;24.65;;;18.00;64.60;;;;;;5055466;28;20017;-36
2021/08/24 02:52:49;;;;;;;36.45;23.45;;;18.00;64.80;;;;;;5055057;28;20172;-38
2021/08/24 02:55:15;;;;;;;42.70;25.35;;;18.00;64.90;;;;;;5055485;28;20425;-36
2021/08/24 02:57:41;;;;;;;44.15;28.40;;;17.90;65.00;;;;;;5055159;28;20029;-36
2021/08/24 03:00:07;;;;;;;36.13;24.63;;;17.90;65.00;;;;;;5055326;28;20448;-38
2021/08/24 03:02:33;;;;;;;38.83;24.60;;;17.90;65.00;;;;;;5056048;28;20057;-36
2021/08/24 03:04:59;;;;;;;41.30;26.90;;;17.90;65.20;;;;;;5058958;28;20059;-37
2021/08/24 03:07:30;;;;;;;43.95;25.65;;;17.90;65.30;;;;;;5058650;28;20059;-36
2021/08/24 03:09:59;;;;;;;40.13;25.63;;;17.90;65.30;;;;;;5058984;28;20029;-37
2021/08/24 03:12:43;;;;;;;38.35;25.40;;;17.80;65.40;;;;;;5058377;28;20041;-38
2021/08/24 03:15:21;;;;;;;46.20;25.55;;;17.80;65.50;;;;;;5058850;28;20407;-36
2021/08/24 03:18:08;;;;;;;38.67;24.45;;;17.80;65.50;;;;;;5058136;28;20052;-36
2021/08/24 03:20:44;;;;;;;33.92;22.98;;;17.80;65.60;;;;;;5058636;28;20336;-38
2021/08/24 03:23:12;;;;;;;40.15;26.70;;;17.80;65.60;;;;;;5058360;28;20032;-37
2021/08/24 03:25:42;;;;;;;36.40;24.00;;;17.80;65.80;;;;;;5057458;28;20056;-37
2021/08/24 03:28:12;;;;;;;45.58;24.65;;;17.80;65.70;;;;;;5058466;28;20060;-37
2021/08/24 03:30:38;;;;;;;35.90;23.73;;;17.80;65.80;;;;;;5058523;28;20033;-37
2021/08/24 03:33:04;;;;;;;38.40;23.77;;;17.80;65.80;;;;;;5058293;28;20047;-37
2021/08/24 03:35:29;;;;;;;37.17;23.92;;;17.80;65.80;;;;;;5058543;28;20029;-36
2021/08/24 03:37:55;;;;;;;38.15;24.63;;;17.80;65.90;;;;;;5058301;28;20134;-38
2021/08/24 03:40:21;;;;;;;39.22;22.63;;;17.80;66.20;;;;;;5058396;28;20128;-37
2021/08/24 03:42:46;;;;;;;35.15;23.67;;;17.90;66.30;;;;;;5058159;28;20062;-38
2021/08/24 03:45:13;;;;;;;32.22;21.77;;;17.90;66.10;;;;;;5057719;28;20025;-38
2021/08/24 03:47:39;;;;;;;31.67;21.05;;;17.90;66.00;;;;;;5057630;28;20032;-36
2021/08/24 03:50:06;;;;;;;39.15;23.38;;;18.00;65.80;;;;;;5058052;28;20028;-37
2021/08/24 03:52:31;;;;;;;39.03;26.80;;;18.00;65.70;;;;;;5057472;28;20029;-37
2021/08/24 03:54:57;;;;;;;37.40;23.05;;;18.00;65.70;;;;;;5058070;28;20028;-37
2021/08/24 03:57:23;;;;;;;39.83;23.10;;;18.10;65.80;;;;;;5057499;28;20083;-37
2021/08/24 03:59:52;;;;;;;37.38;22.83;;;18.10;65.90;;;;;;5057823;28;20360;-38
2021/08/24 04:02:17;;;;;;;38.50;22.95;;;18.10;65.90;;;;;;5057049;28;20033;-38
2021/08/24 04:04:43;;;;;;;50.90;29.60;;;18.30;65.60;;;;;;5057333;28;20271;-38
2021/08/24 04:07:09;;;;;;;32.85;20.90;;;18.30;65.50;;;;;;5057327;28;20040;-37
2021/08/24 04:09:35;;;;;;;34.47;24.00;;;18.30;65.20;;;;;;5057544;28;20032;-37
2021/08/24 04:12:01;;;;;;;36.72;22.88;;;18.40;65.60;;;;;;5057263;28;20302;-37
2021/08/24 04:14:26;;;;;;;31.50;20.67;;;18.50;65.90;;;;;;5056687;28;20029;-37
2021/08/24 04:16:52;;;;;;;31.00;20.90;;;18.50;65.60;;;;;;5057057;28;20041;-37
2021/08/24 04:19:17;;;;;;;33.90;21.05;;;18.60;65.40;;;;;;5057058;28;20025;-37
2021/08/24 04:21:43;;;;;;;32.78;21.48;;;18.60;65.40;;;;;;5057095;28;20188;-37
2021/08/24 04:24:10;;;;;;;46.80;22.65;;;18.70;65.00;;;;;;5057277;28;20170;-37
2021/08/24 04:26:36;;;;;;;28.73;19.42;;;18.70;64.30;;;;;;5057216;28;20413;-38
2021/08/24 04:29:02;;;;;;;26.83;17.40;;;18.80;64.00;;;;;;5056924;28;20325;-38
2021/08/24 04:31:30;;;;;;;28.10;19.80;;;18.90;63.90;;;;;;5057033;28;20429;-38
2021/08/24 04:33:56;;;;;;;30.13;20.15;;;18.90;63.50;;;;;;5056743;28;20040;-38
2021/08/24 04:36:22;;;;;;;25.17;17.63;;;19.00;62.60;;;;;;5056822;28;20033;-36
2021/08/24 04:38:48;;;;;;;26.17;16.15;;;19.10;62.10;;;;;;5056613;28;20017;-37
2021/08/24 04:41:14;;;;;;;26.08;16.75;;;19.10;61.50;;;;;;5056857;28;20033;-36
2021/08/24 04:43:40;;;;;;;24.92;17.98;;;19.20;61.20;;;;;;5056829;28;20055;-36
2021/08/24 04:46:05;;;;;;;24.65;17.27;;;19.20;60.90;;;;;;5056414;28;20033;-36
2021/08/24 04:48:32;;;;;;;29.77;16.40;;;19.30;60.90;;;;;;5056797;28;20083;-38
2021/08/24 04:50:58;;;;;;;25.40;17.48;;;19.30;60.50;;;;;;5057014;28;20029;-37
2021/08/24 04:53:24;;;;;;;23.27;16.75;;;19.40;60.30;;;;;;5056264;28;20079;-36
2021/08/24 04:55:51;;;;;;;22.83;16.08;;;19.50;60.00;;;;;;5056238;28;20078;-37
2021/08/24 04:58:18;;;;;;;28.27;17.30;;;19.50;59.50;;;;;;5056230;28;20026;-36
2021/08/24 05:00:43;;;;;;;37.65;18.10;;;19.60;59.10;;;;;;5056649;28;20037;-36
2021/08/24 05:03:09;;;;;;;23.80;15.05;;;19.70;58.80;;;;;;5056356;28;20028;-37
2021/08/24 05:05:35;;;;;;;22.17;13.98;;;19.70;58.30;;;;;;5056386;28;20079;-38
2021/08/24 05:08:01;;;;;;;22.13;14.68;;;19.80;57.90;;;;;;5056108;28;20032;-36
2021/08/24 05:10:28;;;;;;;20.13;15.82;;;19.90;57.50;;;;;;5056278;28;20037;-38
2021/08/24 05:12:54;;;;;;;20.38;13.57;;;20.00;57.60;;;;;;5056172;28;20059;-37
2021/08/24 05:15:20;;;;;;;22.13;14.98;;;20.00;57.30;;;;;;5056625;28;20024;-37
2021/08/24 05:17:50;;;;;;;24.52;14.73;;;20.10;57.50;;;;;;5055662;28;20445;-37
2021/08/24 05:20:17;;;;;;;26.38;15.70;;;20.20;57.80;;;;;;5056159;28;20025;-36
2021/08/24 05:22:44;;;;;;;30.85;15.85;;;20.30;58.00;;;;;;5056190;28;20381;-37
2021/08/24 05:25:12;;;;;;;24.58;17.33;;;20.30;58.10;;;;;;5055782;28;20037;-36
2021/08/24 05:27:38;;;;;;;29.13;17.83;;;20.40;57.70;;;;;;5055115;28;20037;-36
2021/08/24 05:30:07;;;;;;;24.27;16.52;;;20.50;57.90;;;;;;5056114;28;20090;-36
2021/08/24 05:32:32;;;;;;;30.63;18.95;;;20.60;58.20;;;;;;5055802;28;20048;-36
2021/08/24 05:34:58;;;;;;;30.33;17.42;;;20.60;58.20;;;;;;5056101;28;20024;-37
2021/08/24 05:37:24;;;;;;;27.17;15.98;;;20.70;58.00;;;;;;5055868;28;20044;-37
2021/08/24 05:39:49;;;;;;;41.17;22.75;;;20.80;58.10;;;;;;5055843;28;20112;-36
2021/08/24 05:42:15;;;;;;;37.42;19.63;;;20.90;57.70;;;;;;5055603;28;20091;-36
2021/08/24 05:44:41;;;;;;;29.25;16.98;;;21.00;57.50;;;;;;5055749;28;20048;-36
2021/08/24 05:47:07;;;;;;;22.70;14.25;;;21.00;57.20;;;;;;5055542;28;20440;-37
2021/08/24 05:49:34;;;;;;;21.67;14.50;;;21.10;57.60;;;;;;5055752;28;20033;-36
2021/08/24 05:52:00;;;;;;;18.02;11.63;;;21.20;56.70;;;;;;5055362;28;20040;-38
2021/08/24 05:54:26;;;;;;;17.17;12.35;;;21.30;56.00;;;;;;5055821;28;20405;-37
2021/08/24 05:56:52;;;;;;;18.23;11.30;;;21.40;55.60;;;;;;5055479;28;20021;-38
2021/08/24 05:59:17;;;;;;;16.63;10.68;;;21.50;55.30;;;;;;5055457;28;20028;-36
2021/08/24 06:01:43;;;;;;;17.17;11.73;;;21.60;54.70;;;;;;5055481;28;20033;-37
2021/08/24 06:04:09;;;;;;;18.27;10.20;;;21.70;54.30;;;;;;5055337;28;20025;-38
2021/08/24 06:06:40;;;;;;;17.58;10.13;;;21.80;54.00;;;;;;5055138;28;20033;-38
2021/08/24 06:09:08;;;;;;;17.10;8.80;;;21.90;53.70;;;;;;5055519;28;20128;-38
2021/08/24 06:11:37;;;;;;;16.33;9.82;;;22.00;53.40;;;;;;5055413;28;20095;-39
2021/08/24 06:14:04;;;;;;;16.25;9.25;;;22.10;53.20;;;;;;5055284;28;20112;-36
2021/08/24 06:16:31;;;;;;;13.63;9.45;;;22.20;52.80;;;;;;5055234;28;20045;-36
2021/08/24 06:18:56;;;;;;;15.65;8.27;;;22.30;52.60;;;;;;5055460;28;20017;-36
2021/08/24 06:21:22;;;;;;;15.25;8.27;;;22.40;52.40;;;;;;5055277;28;20048;-38
2021/08/24 06:23:49;;;;;;;11.30;7.13;;;22.50;52.00;;;;;;5055150;28;20029;-38
2021/08/24 06:26:15;;;;;;;10.55;7.30;;;22.50;51.50;;;;;;5054996;28;20041;-37
2021/08/24 06:28:41;;;;;;;15.73;8.13;;;22.60;51.50;;;;;;5054891;28;20072;-37
2021/08/24 06:31:09;;;;;;;10.55;6.85;;;22.70;51.50;;;;;;5054138;28;20028;-37
2021/08/24 06:33:37;;;;;;;10.93;6.93;;;22.70;50.40;;;;;;5054942;28;20429;-36
2021/08/24 06:36:04;;;;;;;13.68;7.85;;;22.80;49.40;;;;;;5055449;28;20025;-37
2021/08/24 06:38:31;;;;;;;8.43;6.57;;;22.90;49.50;;;;;;5058510;28;20403;-36
2021/08/24 06:40:57;;;;;;;10.00;6.05;;;22.90;49.10;;;;;;5059604;28;20033;-38
2021/08/24 06:43:23;;;;;;;10.60;6.88;;;23.00;49.30;;;;;;5058562;28;20033;-38
2021/08/24 06:45:49;;;;;;;9.65;6.47;;;23.10;49.30;;;;;;5059237;28;20302;-37
2021/08/24 06:48:15;;;;;;;11.40;6.95;;;23.20;49.10;;;;;;5059141;28;20082;-37
2021/08/24 06:50:41;;;;;;;8.38;7.22;;;23.20;48.90;;;;;;5058948;28;20025;-37
2021/08/24 06:53:06;;;;;;;15.95;6.63;;;23.30;48.90;;;;;;5058902;28;20051;-37
2021/08/24 06:55:32;;;;;;;9.25;6.10;;;23.40;48.90;;;;;;5059062;28;20296;-37
2021/08/24 06:58:00;;;;;;;10.43;5.55;;;23.50;48.90;;;;;;5058946;28;20414;-37
2021/08/24 07:00:27;;;;;;;10.07;6.88;;;23.60;48.60;;;;;;5059029;28;20100;-37
2021/08/24 07:02:53;;;;;;;9.48;5.68;;;23.60;47.90;;;;;;5058409;28;20467;-38
2021/08/24 07:05:26;;;;;;;8.55;5.63;;;23.70;47.10;;;;;;5058866;28;20316;-37
2021/08/24 07:07:52;;;;;;;7.38;5.25;;;23.80;47.20;;;;;;5058331;28;20029;-38
2021/08/24 07:10:19;;;;;;;19.70;5.75;;;23.90;47.10;;;;;;5058631;28;20439;-38
2021/08/24 07:12:44;;;;;;;9.65;5.47;;;24.00;45.90;;;;;;5058070;28;20049;-37
2021/08/24 07:15:13;;;;;;;7.95;4.53;;;24.10;45.70;;;;;;5058548;28;20036;-38
2021/08/24 07:17:38;;;;;;;6.05;4.57;;;24.10;45.70;;;;;;5057631;28;20049;-36
2021/08/24 07:20:11;;;;;;;10.90;5.43;;;24.20;44.90;;;;;;5058410;28;20039;-38
2021/08/24 07:22:37;;;;;;;8.75;5.68;;;24.30;44.50;;;;;;5057664;28;20479;-38
2021/08/24 07:25:05;;;;;;;13.05;5.00;;;24.40;44.60;;;;;;5058344;28;20104;-37
2021/08/24 07:27:31;;;;;;;6.80;4.72;;;24.40;44.20;;;;;;5057942;28;20033;-38
2021/08/24 07:29:57;;;;;;;12.73;6.63;;;24.40;44.30;;;;;;5058389;28;20112;-36
2021/08/24 07:32:23;;;;;;;8.60;5.40;;;24.50;44.60;;;;;;5057926;28;20103;-38
2021/08/24 07:34:49;;;;;;;9.90;5.95;;;24.60;44.70;;;;;;5058019;28;20033;-36
2021/08/24 07:37:14;;;;;;;7.43;5.00;;;24.60;44.50;;;;;;5058067;28;20081;-37
2021/08/24 07:39:40;;;;;;;11.15;5.43;;;24.70;44.30;;;;;;5058123;28;20110;-38
2021/08/24 07:42:06;;;;;;;5.95;4.75;;;24.80;44.30;;;;;;5057704;28;20025;-36
2021/08/24 07:44:33;;;;;;;7.03;4.50;;;24.90;43.60;;;;;;5057624;28;20409;-38
2021/08/24 07:47:00;;;;;;;7.38;4.05;;;24.90;42.70;;;;;;5057467;28;20033;-38
2021/08/24 07:49:26;;;;;;;8.45;5.75;;;25.00;42.60;;;;;;5057032;28;20033;-36
2021/08/24 07:51:54;;;;;;;7.30;4.90;;;25.00;43.30;;;;;;5055628;28;20036;-36
2021/08/24 07:54:20;;;;;;;9.95;4.80;;;25.10;43.20;;;;;;5056793;28;20120;-36
2021/08/24 07:56:46;;;;;;;10.05;5.10;;;25.20;42.80;;;;;;5053941;28;20017;-37
2021/08/24 07:59:12;;;;;;;8.00;5.40;;;25.30;42.60;;;;;;5057015;28;20032;-37
2021/08/24 08:01:37;;;;;;;4.68;4.10;;;25.40;42.80;;;;;;5056733;28;20028;-36
2021/08/24 08:04:03;;;;;;;9.98;6.43;;;25.40;42.60;;;;;;5056889;28;20036;-37
2021/08/24 08:06:29;;;;;;;16.52;10.23;;;25.50;45.80;;;;;;5056848;28;20033;-39
2021/08/24 08:08:54;;;;;;;11.95;8.38;;;25.50;47.40;;;;;;5056659;28;20037;-38
2021/08/24 08:11:20;;;;;;;9.90;7.22;;;25.50;49.10;;;;;;5056879;28;20108;-37
2021/08/24 08:13:46;;;;;;;10.43;6.72;;;25.60;49.80;;;;;;5056591;28;20401;-38
2021/08/24 08:16:11;;;;;;;10.13;7.35;;;25.70;50.40;;;;;;5056279;28;20044;-37
2021/08/24 08:18:37;;;;;;;11.23;6.78;;;25.70;49.90;;;;;;5056452;28;20432;-38
2021/08/24 08:21:03;;;;;;;10.18;6.68;;;25.70;50.30;;;;;;5056750;28;20424;-37
2021/08/24 08:23:29;;;;;;;7.55;6.72;;;25.70;51.00;;;;;;5056832;28;20032;-37
2021/08/24 08:25:54;;;;;;;11.00;8.57;;;25.70;51.20;;;;;;5056599;28;20117;-38
2021/08/24 08:28:20;;;;;;;15.57;10.68;;;25.70;51.10;;;;;;5055174;28;20044;-38
2021/08/24 08:30:47;;;;;;;9.77;7.60;;;25.70;51.30;;;;;;5056466;28;20068;-37
2021/08/24 08:33:13;;;;;;;11.93;7.03;;;25.70;51.70;;;;;;5056873;28;20024;-37
2021/08/24 08:35:40;;;;;;;11.73;8.95;;;25.70;52.30;;;;;;5056690;28;20029;-38
2021/08/24 08:38:06;;;;;;;14.32;7.95;;;25.70;52.60;;;;;;5056479;28;20029;-36
2021/08/24 08:40:58;;;;;;;7.95;5.80;;;25.70;52.40;;;;;;5053956;28;20020;-38
2021/08/24 08:43:33;;;;;;;10.18;9.02;;;25.70;52.40;;;;;;5056270;28;20314;-36
2021/08/24 08:46:09;;;;;;;11.73;9.63;;;25.70;53.00;;;;;;5056119;28;20040;-37
2021/08/24 08:48:59;;;;;;;8.57;7.55;;;25.70;53.00;;;;;;5055808;28;20037;-38
2021/08/24 08:51:46;;;;;;;11.48;9.40;;;25.70;53.00;;;;;;5056239;28;20372;-36
2021/08/24 08:54:17;;;;;;;14.65;11.40;;;25.70;53.10;;;;;;5055941;28;20274;-36
2021/08/24 08:56:57;;;;;;;8.95;7.78;;;25.70;53.00;;;;;;5055419;28;20325;-38
2021/08/24 08:59:40;;;;;;;8.25;6.82;;;25.70;53.10;;;;;;5056191;28;20300;-38
2021/08/24 09:02:24;;;;;;;10.45;8.20;;;25.80;53.50;;;;;;5056008;28;20029;-38
2021/08/24 09:04:52;;;;;;;12.30;9.68;;;25.80;53.40;;;;;;5056088;28;20112;-38
2021/08/24 09:07:39;;;;;;;7.15;6.45;;;25.90;53.80;;;;;;5056291;28;20033;-38
2021/08/24 09:10:20;;;;;;;8.38;6.63;;;25.90;53.50;;;;;;5055872;28;20413;-38
2021/08/24 09:12:54;;;;;;;5.82;4.82;;;25.90;52.80;;;;;;5055666;28;20047;-38
2021/08/24 09:15:32;;;;;;;8.00;6.53;;;25.90;53.20;;;;;;5055879;28;20021;-36
2021/08/24 09:17:58;;;;;;;7.15;5.53;;;26.00;53.30;;;;;;5055587;28;20060;-36
2021/08/24 09:20:30;;;;;;;8.07;6.40;;;26.00;53.70;;;;;;5056154;28;20025;-37
2021/08/24 09:22:57;;;;;;;6.78;5.40;;;26.00;53.30;;;;;;5055514;28;20029;-37
2021/08/24 09:25:46;;;;;;;8.98;4.97;;;26.00;52.80;;;;;;5055948;28;20321;-37
2021/08/24 09:28:22;;;;;;;7.88;4.82;;;26.10;52.00;;;;;;5055682;28;20033;-37
2021/08/24 09:30:48;;;;;;;6.22;5.35;;;26.10;52.40;;;;;;5055969;28;20393;-37
2021/08/24 09:33:14;;;;;;;11.00;5.68;;;26.10;52.50;;;;;;5055690;28;20041;-39
2021/08/24 09:35:43;;;;;;;5.88;5.05;;;26.20;52.90;;;;;;5055883;28;20086;-38
2021/08/24 09:38:20;;;;;;;6.57;5.38;;;26.20;52.70;;;;;;5055523;28;20029;-36
2021/08/24 09:40:52;;;;;;;6.45;4.57;;;26.20;51.80;;;;;;5055858;28;20029;-36
2021/08/24 09:43:34;;;;;;;5.97;5.03;;;26.20;52.60;;;;;;5054712;28;20040;-38
2021/08/24 09:46:02;;;;;;;7.40;5.68;;;26.30;51.80;;;;;;5055991;28;20033;-38
2021/08/24 09:48:32;;;;;;;6.13;5.22;;;26.30;52.20;;;;;;5055177;28;20083;-37
2021/08/24 09:51:34;;;;;;;7.93;5.27;;;26.30;52.90;;;;;;5055291;28;20080;-38
2021/08/24 09:54:03;;;;;;;6.63;4.65;;;26.40;52.50;;;;;;5055426;28;20359;-37
2021/08/24 09:56:36;;;;;;;7.38;4.65;;;26.40;52.80;;;;;;5055625;28;20040;-37
2021/08/24 09:59:02;;;;;;;5.95;5.15;;;26.50;52.60;;;;;;5055493;28;20337;-36
2021/08/24 10:01:47;;;;;;;6.75;5.45;;;26.60;52.90;;;;;;5055278;28;20029;-37
2021/08/24 10:04:13;;;;;;;5.93;4.80;;;26.60;52.10;;;;;;5055362;28;20055;-37
2021/08/24 10:07:04;;;;;;;7.70;5.53;;;26.70;51.70;;;;;;5055368;28;20120;-37
2021/08/24 10:09:37;;;;;;;7.35;3.97;;;26.70;52.00;;;;;;5055608;28;20074;-36
2021/08/24 10:12:28;;;;;;;7.47;4.78;;;26.70;51.60;;;;;;5055661;28;20060;-37
2021/08/24 10:14:56;;;;;;;6.80;6.18;;;26.80;50.90;;;;;;5055524;28;20108;-36
2021/08/24 10:17:37;;;;;;;4.40;3.67;;;26.80;50.90;;;;;;5058670;28;20349;-36
2021/08/24 10:20:29;;;;;;;6.15;5.05;;;26.80;50.80;;;;;;5059321;28;20024;-38
2021/08/24 10:22:55;;;;;;;7.30;5.60;;;26.80;50.50;;;;;;5059068;28;20302;-37
2021/08/24 10:25:50;;;;;;;5.50;4.70;;;26.80;50.70;;;;;;5058808;28;20111;-39
2021/08/24 10:28:24;;;;;;;5.40;4.70;;;26.90;50.50;;;;;;5058931;28;20040;-37
2021/08/24 10:31:00;;;;;;;5.75;5.25;;;26.90;51.10;;;;;;5059294;28;20039;-38
2021/08/24 10:34:05;;;;;;;4.43;3.97;;;27.00;50.40;;;;;;5058827;28;20037;-37
2021/08/24 10:36:44;;;;;;;4.95;4.25;;;27.00;50.30;;;;;;5058302;28;20075;-38
2021/08/24 10:39:22;;;;;;;5.38;4.28;;;27.10;49.90;;;;;;5058996;28;20104;-38
2021/08/24 10:42:04;;;;;;;10.82;4.63;;;27.20;49.50;;;;;;5058473;28;20417;-39
2021/08/24 10:44:43;;;;;;;6.05;4.70;;;27.20;49.00;;;;;;5058275;28;20423;-36
2021/08/24 10:47:54;;;;;;;7.57;4.10;;;27.30;48.90;;;;;;5058241;28;20033;-37
2021/08/24 10:50:26;;;;;;;5.63;5.05;;;27.30;48.00;;;;;;5058523;28;20029;-38
2021/08/24 10:53:01;;;;;;;6.95;3.72;;;27.40;47.40;;;;;;5058455;28;20044;-37
2021/08/24 10:55:29;;;;;;;7.38;4.00;;;27.40;47.00;;;;;;5058539;28;20389;-36
2021/08/24 10:58:16;;;;;;;6.38;4.13;;;27.50;46.70;;;;;;5055476;28;20025;-37
2021/08/24 11:01:01;;;;;;;8.88;4.05;;;27.60;46.10;;;;;;5058598;28;20029;-38
2021/08/24 11:03:43;;;;;;;6.95;3.15;;;27.70;46.50;;;;;;5058267;28;20320;-37
2021/08/24 11:06:37;;;;;;;5.13;3.83;;;27.80;45.30;;;;;;5058563;28;20033;-38
2021/08/24 11:09:08;;;;;;;5.20;4.25;;;27.90;45.70;;;;;;5057904;28;20417;-36
2021/08/24 11:12:11;;;;;;;5.93;5.32;;;28.00;45.70;;;;;;5058066;28;20033;-38
2021/08/24 11:14:48;;;;;;;6.97;4.40;;;28.10;45.00;;;;;;5057940;28;20032;-38
2021/08/24 11:17:32;;;;;;;5.72;4.15;;;28.20;45.00;;;;;;5057598;28;20382;-36
2021/08/24 11:20:04;;;;;;;5.60;4.50;;;28.30;43.10;;;;;;5058247;28;20028;-38
2021/08/24 11:22:34;;;;;;;6.15;4.78;;;28.40;43.30;;;;;;5057727;28;20040;-38
2021/08/24 11:25:18;;;;;;;5.68;3.55;;;28.50;42.60;;;;;;5058344;28;20413;-37
2021/08/24 11:27:55;;;;;;;11.15;5.30;;;28.60;43.00;;;;;;5057501;28;20037;-37
2021/08/24 11:31:01;;;;;;;3.97;3.28;;;28.70;42.80;;;;;;5058178;28;20029;-37
2021/08/24 11:33:39;;;;;;;5.60;3.28;;;28.80;43.10;;;;;;5055202;28;20376;-37
2021/08/24 11:36:16;;;;;;;4.82;3.75;;;28.90;42.20;;;;;;5057587;28;20044;-37
2021/08/24 11:38:50;;;;;;;7.40;4.68;;;28.90;41.40;;;;;;5057601;28;20025;-37
2021/08/24 11:41:22;;;;;;;6.95;3.63;;;29.10;40.90;;;;;;5057528;28;20127;-37
2021/08/24 11:44:06;;;;;;;8.00;4.05;;;29.10;40.50;;;;;;5057525;28;20052;-37
2021/08/24 11:46:34;;;;;;;4.57;3.28;;;29.30;40.80;;;;;;5057527;28;20037;-38
2021/08/24 11:49:08;;;;;;;8.88;6.18;;;29.30;41.00;;;;;;5057270;28;20021;-38
2021/08/24 11:51:36;;;;;;;6.18;3.75;;;29.40;41.20;;;;;;5057446;28;20453;-37
2021/08/24 11:55:03;;;;;;;7.85;4.07;;;29.50;41.30;;;;;;5057228;28;20055;-37
2021/08/24 11:57:37;;;;;;;8.43;3.92;;;29.60;41.70;;;;;;5056572;28;20048;-37
2021/08/24 12:00:05;;;;;;;5.32;4.10;;;29.70;41.60;;;;;;5056992;28;20017;-37
2021/08/24 12:02:39;;;;;;;8.73;4.55;;;29.80;41.70;;;;;;5057499;28;20317;-37
2021/08/24 12:05:15;;;;;;;5.05;4.50;;;29.80;40.30;;;;;;5057592;28;20028;-40
2021/08/24 12:07:41;;;;;;;3.92;3.53;;;30.00;40.90;;;;;;5057275;28;20037;-37
2021/08/24 12:10:32;;;;;;;4.32;3.75;;;30.10;40.40;;;;;;5057151;28;20413;-37
2021/08/24 12:13:09;;;;;;;5.75;4.40;;;30.20;39.80;;;;;;5057079;28;20036;-38
2021/08/24 12:15:46;;;;;;;6.45;5.35;;;30.30;39.70;;;;;;5057375;28;20029;-39
2021/08/24 12:18:18;;;;;;;5.28;3.72;;;30.40;39.70;;;;;;5057061;28;20033;-37
2021/08/24 12:20:46;;;;;;;4.43;3.50;;;30.50;39.50;;;;;;5057362;28;20368;-38
2021/08/24 12:23:29;;;;;;;5.65;3.63;;;30.60;39.60;;;;;;5056914;28;20051;-37
2021/08/24 12:25:55;;;;;;;6.70;3.97;;;30.80;39.50;;;;;;5057163;28;20074;-38
2021/08/24 12:28:22;;;;;;;6.10;5.60;;;30.90;39.50;;;;;;5057100;28;20033;-38
2021/08/24 12:30:59;;;;;;;6.18;3.80;;;30.90;39.30;;;;;;5057005;28;20112;-37
2021/08/24 12:33:41;;;;;;;5.88;5.38;;;31.10;39.10;;;;;;5056525;28;20033;-38
2021/08/24 12:36:44;;;;;;;7.13;5.80;;;31.10;39.40;;;;;;5056699;28;20017;-38
2021/08/24 12:39:45;;;;;;;4.25;3.85;;;31.30;39.40;;;;;;5056786;28;20128;-37
2021/08/24 12:42:27;;;;;;;5.47;3.40;;;31.40;39.10;;;;;;5055505;28;20029;-39
2021/08/24 12:44:59;;;;;;;4.97;3.72;;;31.50;38.80;;;;;;5056931;28;20032;-38
2021/08/24 12:47:28;;;;;;;6.28;4.40;;;31.60;38.80;;;;;;5056563;28;20037;-37
2021/08/24 12:49:54;;;;;;;6.03;5.43;;;31.70;38.90;;;;;;5056966;28;20068;-38
2021/08/24 12:52:26;;;;;;;9.38;5.30;;;31.80;38.60;;;;;;5056513;28;20661;-37
2021/08/24 12:55:34;;;;;;;6.43;5.00;;;31.90;37.70;;;;;;5056524;28;20021;-37
2021/08/24 12:58:11;;;;;;;4.50;4.05;;;32.10;37.80;;;;;;5055948;28;20044;-37
2021/08/24 13:00:39;;;;;;;4.22;3.83;;;32.10;37.10;;;;;;5056549;28;20021;-37